createdAt,value
2022-12-01T00:01:29.034Z,7.57
2022-12-01T00:03:58.370Z,7.52
2022-12-01T00:06:26.586Z,7.49
2022-12-01T00:09:17.988Z,7.55
2022-12-01T00:11:48.627Z,7.72
2022-12-01T00:14:16.721Z,7.66
2022-12-01T00:16:45.079Z,7.62
2022-12-01T00:19:13.177Z,7.60
2022-12-01T00:21:41.287Z,7.53
2022-12-01T00:24:10.659Z,7.55
2022-12-01T00:26:39.001Z,7.55
2022-12-01T00:29:06.971Z,7.57
2022-12-01T00:31:35.298Z,7.50
2022-12-01T00:34:08.095Z,7.50
2022-12-01T00:36:39.341Z,7.40
2022-12-01T00:39:08.420Z,7.39
2022-12-01T00:41:36.251Z,7.47
2022-12-01T00:44:04.248Z,7.48
2022-12-01T00:46:32.195Z,7.49
2022-12-01T00:49:00.171Z,7.55
2022-12-01T00:51:28.091Z,7.56
2022-12-01T00:53:55.956Z,7.52
2022-12-01T00:56:24.007Z,7.47
2022-12-01T00:58:51.886Z,7.44
2022-12-01T01:01:19.974Z,7.39
2022-12-01T01:03:48.359Z,7.52
2022-12-01T01:06:16.870Z,7.51
2022-12-01T01:08:46.528Z,7.50
2022-12-01T01:11:14.515Z,7.49
2022-12-01T01:13:42.543Z,7.55
2022-12-01T01:16:21.861Z,7.61
2022-12-01T01:18:50.134Z,7.60
2022-12-01T01:21:21.367Z,7.69
2022-12-01T01:23:50.255Z,7.65
2022-12-01T01:26:24.686Z,7.59
2022-12-01T01:28:53.586Z,7.60
2022-12-01T01:31:23.951Z,7.61
2022-12-01T01:33:52.438Z,7.52
2022-12-01T01:36:20.402Z,7.42
2022-12-01T01:38:51.771Z,7.39
2022-12-01T01:41:20.390Z,7.42
2022-12-01T01:43:51.172Z,7.40
2022-12-01T01:46:22.506Z,7.37
2022-12-01T01:48:52.749Z,7.42
2022-12-01T01:51:29.968Z,7.43
2022-12-01T01:54:04.467Z,7.42
2022-12-01T01:56:32.899Z,7.47
2022-12-01T01:59:01.293Z,7.41
2022-12-01T02:01:29.669Z,7.39
2022-12-01T02:03:58.734Z,7.43
2022-12-01T02:06:26.678Z,7.49
2022-12-01T02:08:54.670Z,7.49
2022-12-01T02:11:48.738Z,7.52
2022-12-01T02:14:53.864Z,7.46
2022-12-01T02:17:41.895Z,7.48
2022-12-01T02:20:42.581Z,7.48
2022-12-01T02:23:16.130Z,7.46
2022-12-01T02:26:16.452Z,7.45
2022-12-01T02:29:11.714Z,7.43
2022-12-01T02:32:02.464Z,7.45
2022-12-01T02:35:04.459Z,7.45
2022-12-01T02:37:47.996Z,7.51
2022-12-01T02:40:25.183Z,7.46
2022-12-01T02:43:03.219Z,7.46
2022-12-01T02:45:48.551Z,7.47
2022-12-01T02:48:38.690Z,7.46
2022-12-01T02:51:29.298Z,7.45
2022-12-01T02:54:01.980Z,7.51
2022-12-01T02:56:30.125Z,7.43
2022-12-01T02:58:58.101Z,7.40
2022-12-01T03:01:45.114Z,7.45
2022-12-01T03:04:48.457Z,7.48
2022-12-01T03:07:33.361Z,7.45
2022-12-01T03:10:14.379Z,7.44
2022-12-01T03:12:49.717Z,7.42
2022-12-01T03:15:47.204Z,7.36
2022-12-01T03:18:40.064Z,7.27
2022-12-01T03:21:13.296Z,7.32
2022-12-01T03:23:44.713Z,7.29
2022-12-01T03:26:18.373Z,7.24
2022-12-01T03:28:59.950Z,7.26
2022-12-01T03:31:33.557Z,7.33
2022-12-01T03:34:15.310Z,7.26
2022-12-01T03:36:48.297Z,7.36
2022-12-01T03:39:23.609Z,7.45
2022-12-01T03:42:03.459Z,7.40
2022-12-01T03:44:38.708Z,7.36
2022-12-01T03:47:12.467Z,7.25
2022-12-01T03:49:41.174Z,7.23
2022-12-01T03:52:43.094Z,7.17
2022-12-01T03:55:17.553Z,7.08
2022-12-01T03:57:54.008Z,7.09
2022-12-01T04:00:22.469Z,7.02
2022-12-01T04:03:00.254Z,6.99
2022-12-01T04:05:28.302Z,7.02
2022-12-01T04:07:56.194Z,6.94
2022-12-01T04:10:24.438Z,6.99
2022-12-01T04:12:59.086Z,7.02
2022-12-01T04:15:27.978Z,7.02
2022-12-01T04:17:56.113Z,7.02
2022-12-01T04:20:23.927Z,6.95
2022-12-01T04:22:52.018Z,6.90
2022-12-01T04:25:19.846Z,6.88
2022-12-01T04:27:47.826Z,6.86
2022-12-01T04:30:15.919Z,6.88
2022-12-01T04:32:44.619Z,6.86
2022-12-01T04:35:13.260Z,6.82
2022-12-01T04:37:41.260Z,6.82
2022-12-01T04:40:09.750Z,6.82
2022-12-01T04:42:37.777Z,6.83
2022-12-01T04:45:06.273Z,6.82
2022-12-01T04:47:36.444Z,6.77
2022-12-01T04:50:04.713Z,6.77
2022-12-01T04:52:35.412Z,6.79
2022-12-01T04:55:04.438Z,6.79
2022-12-01T04:57:32.296Z,6.79
2022-12-01T05:00:00.148Z,6.76
2022-12-01T05:02:28.037Z,6.76
2022-12-01T05:04:55.872Z,6.71
2022-12-01T05:07:23.869Z,6.70
2022-12-01T05:09:52.033Z,6.65
2022-12-01T05:12:20.177Z,6.66
2022-12-01T05:14:48.164Z,6.65
2022-12-01T05:17:16.161Z,6.67
2022-12-01T05:20:02.995Z,6.68
2022-12-01T05:22:57.242Z,6.70
2022-12-01T05:25:19.711Z,6.74
2022-12-01T05:27:47.543Z,6.66
2022-12-01T05:30:15.516Z,6.63
2022-12-01T05:32:43.364Z,6.70
2022-12-01T05:35:11.229Z,6.69
2022-12-01T05:37:39.100Z,6.73
2022-12-01T05:40:08.424Z,6.93
2022-12-01T05:42:36.471Z,7.07
2022-12-01T05:45:04.643Z,6.97
2022-12-01T05:47:32.574Z,6.92
2022-12-01T05:50:05.215Z,6.82
2022-12-01T05:52:35.495Z,6.80
2022-12-01T05:55:04.954Z,6.78
2022-12-01T05:57:33.924Z,6.78
2022-12-01T06:00:01.858Z,6.80
2022-12-01T06:02:42.387Z,6.85
2022-12-01T06:05:10.361Z,6.85
2022-12-01T06:07:40.575Z,6.80
2022-12-01T06:10:09.889Z,6.77
2022-12-01T06:12:38.327Z,6.78
2022-12-01T06:15:07.788Z,6.88
2022-12-01T06:17:39.911Z,6.82
2022-12-01T06:20:09.847Z,6.88
2022-12-01T06:22:37.865Z,6.91
2022-12-01T06:25:06.349Z,6.89
2022-12-01T06:27:35.568Z,6.92
2022-12-01T06:30:05.376Z,6.99
2022-12-01T06:32:33.270Z,6.98
2022-12-01T06:35:01.236Z,7.02
2022-12-01T06:37:34.293Z,6.95
2022-12-01T06:40:02.177Z,6.99
2022-12-01T06:42:32.404Z,6.96
2022-12-01T06:45:00.416Z,6.99
2022-12-01T06:47:28.376Z,6.99
2022-12-01T06:49:56.523Z,7.01
2022-12-01T06:52:24.480Z,6.99
2022-12-01T06:54:52.484Z,7.04
2022-12-01T06:57:20.732Z,7.04
2022-12-01T06:59:49.142Z,7.05
2022-12-01T07:02:18.067Z,7.08
2022-12-01T07:04:46.029Z,7.14
2022-12-01T07:07:14.051Z,7.24
2022-12-01T07:09:42.273Z,7.25
2022-12-01T07:12:10.857Z,7.29
2022-12-01T07:14:39.092Z,7.28
2022-12-01T07:17:07.075Z,7.29
2022-12-01T07:19:35.008Z,7.33
2022-12-01T07:22:03.233Z,7.33
2022-12-01T07:24:31.571Z,7.43
2022-12-01T07:26:59.589Z,7.50
2022-12-01T07:29:27.623Z,7.46
2022-12-01T07:31:55.424Z,7.48
2022-12-01T07:34:23.253Z,7.54
2022-12-01T07:36:51.253Z,7.61
2022-12-01T07:39:19.139Z,7.58
2022-12-01T07:41:47.191Z,7.69
2022-12-01T07:44:15.163Z,7.92
2022-12-01T07:46:43.263Z,7.96
2022-12-01T07:49:15.028Z,7.89
2022-12-01T07:51:43.014Z,7.94
2022-12-01T07:54:14.417Z,8.25
2022-12-01T07:56:42.566Z,8.39
2022-12-01T07:59:10.466Z,8.40
2022-12-01T08:01:44.098Z,8.52
2022-12-01T08:04:12.488Z,8.40
2022-12-01T08:06:40.517Z,8.37
2022-12-01T08:09:08.590Z,8.53
2022-12-01T08:11:36.505Z,8.69
2022-12-01T08:14:04.480Z,8.79
2022-12-01T08:16:32.490Z,8.83
2022-12-01T08:19:00.525Z,8.83
2022-12-01T08:21:28.608Z,8.94
2022-12-01T08:23:57.995Z,9.11
2022-12-01T08:26:26.589Z,9.26
2022-12-01T08:28:54.712Z,9.43
2022-12-01T08:31:29.330Z,9.35
2022-12-01T08:33:57.867Z,9.53
2022-12-01T08:36:25.853Z,9.75
2022-12-01T08:38:55.462Z,9.79
2022-12-01T08:41:24.896Z,9.99
2022-12-01T08:43:58.373Z,10.13
2022-12-01T08:46:29.116Z,10.12
2022-12-01T08:48:57.976Z,10.31
2022-12-01T08:51:26.497Z,10.40
2022-12-01T08:53:56.597Z,10.56
2022-12-01T08:56:36.654Z,11.08
2022-12-01T08:59:04.982Z,11.32
2022-12-01T09:01:33.873Z,11.50
2022-12-01T09:04:06.473Z,11.74
2022-12-01T09:06:40.497Z,12.02
2022-12-01T09:09:11.109Z,12.06
2022-12-01T09:11:40.182Z,12.33
2022-12-01T09:14:08.028Z,12.49
2022-12-01T09:16:36.604Z,12.51
2022-12-01T09:19:05.404Z,12.43
2022-12-01T09:21:35.041Z,12.74
2022-12-01T09:24:05.406Z,13.32
2022-12-01T09:26:34.121Z,13.35
2022-12-01T09:29:06.655Z,13.50
2022-12-01T09:31:35.758Z,13.28
2022-12-01T09:34:06.194Z,13.25
2022-12-01T09:36:35.845Z,13.19
2022-12-01T09:39:05.660Z,12.86
2022-12-01T09:41:38.105Z,12.78
2022-12-01T09:44:36.057Z,13.00
2022-12-01T09:47:16.923Z,12.93
2022-12-01T09:49:54.554Z,13.02
2022-12-01T09:52:25.267Z,13.15
2022-12-01T09:54:55.537Z,13.08
2022-12-01T09:57:37.123Z,13.09
2022-12-01T10:00:12.353Z,13.16
2022-12-01T10:03:09.947Z,13.14
2022-12-01T10:06:25.148Z,13.20
2022-12-01T10:08:44.307Z,13.36
2022-12-01T10:11:31.132Z,13.65
2022-12-01T10:14:00.333Z,13.30
2022-12-01T10:16:38.607Z,13.36
2022-12-01T10:19:28.806Z,13.46
2022-12-01T10:22:21.473Z,13.72
2022-12-01T10:25:01.346Z,13.44
2022-12-01T10:27:40.942Z,13.06
2022-12-01T10:30:18.875Z,13.20
2022-12-01T10:33:19.092Z,13.09
2022-12-01T10:35:46.990Z,13.19
2022-12-01T10:38:26.195Z,13.21
2022-12-01T10:40:58.259Z,13.29
2022-12-01T10:43:34.485Z,12.95
2022-12-01T10:46:37.139Z,12.93
2022-12-01T10:49:11.299Z,12.92
2022-12-01T10:51:50.436Z,13.15
2022-12-01T10:54:18.975Z,13.04
2022-12-01T10:56:49.529Z,12.69
2022-12-01T10:59:31.536Z,12.84
2022-12-01T11:02:01.366Z,12.84
2022-12-01T11:04:47.828Z,12.98
2022-12-01T11:07:28.959Z,12.99
2022-12-01T11:10:05.325Z,13.01
2022-12-01T11:12:34.200Z,12.78
2022-12-01T11:15:02.676Z,13.07
2022-12-01T11:17:40.844Z,13.30
2022-12-01T11:20:30.595Z,13.59
2022-12-01T11:23:10.548Z,13.78
2022-12-01T11:25:38.625Z,13.87
2022-12-01T11:28:06.842Z,13.68
2022-12-01T11:30:34.987Z,13.68
2022-12-01T11:33:04.622Z,13.52
2022-12-01T11:35:36.584Z,13.66
2022-12-01T11:38:28.772Z,13.62
2022-12-01T11:40:56.720Z,13.93
2022-12-01T11:43:35.412Z,14.05
2022-12-01T11:46:07.686Z,14.07
2022-12-01T11:48:36.707Z,13.80
2022-12-01T11:51:19.819Z,14.05
2022-12-01T11:53:47.884Z,14.10
2022-12-01T11:56:29.167Z,14.11
2022-12-01T11:59:04.218Z,14.05
2022-12-01T12:01:57.123Z,14.18
2022-12-01T12:05:00.211Z,13.72
2022-12-01T12:07:55.346Z,13.63
2022-12-01T12:10:38.424Z,13.68
2022-12-01T12:13:15.632Z,13.87
2022-12-01T12:16:21.927Z,13.72
2022-12-01T12:19:34.294Z,13.54
2022-12-01T12:22:39.980Z,12.96
2022-12-01T12:25:23.061Z,12.72
2022-12-01T12:28:06.049Z,12.77
2022-12-01T12:30:45.231Z,12.84
2022-12-01T12:33:50.798Z,12.92
2022-12-01T12:36:47.298Z,12.82
2022-12-01T12:39:54.019Z,12.79
2022-12-01T12:42:55.203Z,12.85
2022-12-01T12:45:41.718Z,12.84
2022-12-01T12:48:31.261Z,12.67
2022-12-01T12:51:24.875Z,12.49
2022-12-01T12:54:13.073Z,12.63
2022-12-01T12:56:48.952Z,12.42
2022-12-01T12:59:27.126Z,12.46
2022-12-01T13:02:18.013Z,12.43
2022-12-01T13:05:00.390Z,12.29
2022-12-01T13:07:34.750Z,12.34
2022-12-01T13:10:29.188Z,12.35
2022-12-01T13:13:17.759Z,12.47
2022-12-01T13:15:48.500Z,12.42
2022-12-01T13:18:26.335Z,12.56
2022-12-01T13:20:57.693Z,12.47
2022-12-01T13:23:26.759Z,12.53
2022-12-01T13:25:58.189Z,12.55
2022-12-01T13:28:53.014Z,12.53
2022-12-01T13:31:24.999Z,12.43
2022-12-01T13:34:04.472Z,12.46
2022-12-01T13:36:47.759Z,12.40
2022-12-01T13:39:25.714Z,12.34
2022-12-01T13:42:02.350Z,12.23
2022-12-01T13:44:36.621Z,12.32
2022-12-01T13:47:17.027Z,12.26
2022-12-01T13:49:50.483Z,12.17
2022-12-01T13:52:22.079Z,12.16
2022-12-01T13:55:04.440Z,12.18
2022-12-01T13:57:35.378Z,12.14
2022-12-01T14:00:27.555Z,12.25
2022-12-01T14:03:17.793Z,12.16
2022-12-01T14:05:57.193Z,12.19
2022-12-01T14:08:30.505Z,12.12
2022-12-01T14:11:01.950Z,11.89
2022-12-01T14:13:32.764Z,11.95
2022-12-01T14:16:03.871Z,11.94
2022-12-01T14:18:40.567Z,11.85
2022-12-01T14:21:12.391Z,11.81
2022-12-01T14:24:00.705Z,11.72
2022-12-01T14:26:32.122Z,11.77
2022-12-01T14:29:00.769Z,11.78
2022-12-01T14:31:35.713Z,11.64
2022-12-01T14:34:18.887Z,11.66
2022-12-01T14:36:57.272Z,11.65
2022-12-01T14:39:27.609Z,11.51
2022-12-01T14:42:02.790Z,11.60
2022-12-01T14:44:41.989Z,11.55
2022-12-01T14:47:36.554Z,11.41
2022-12-01T14:50:15.748Z,11.45
2022-12-01T14:52:52.925Z,11.33
2022-12-01T14:55:29.737Z,11.32
2022-12-01T14:58:06.403Z,11.25
2022-12-01T15:00:37.829Z,11.20
2022-12-01T15:03:14.755Z,11.27
2022-12-01T15:05:46.968Z,11.21
2022-12-01T15:11:22.185Z,11.22
2022-12-01T15:13:55.470Z,11.24
2022-12-01T15:16:30.708Z,11.19
2022-12-01T15:18:58.937Z,11.31
2022-12-01T15:21:30.093Z,11.19
2022-12-01T15:24:20.873Z,11.04
2022-12-01T15:26:57.898Z,10.92
2022-12-01T15:29:46.022Z,10.84
2022-12-01T15:32:18.802Z,10.79
2022-12-01T15:34:54.693Z,10.69
2022-12-01T15:37:26.404Z,10.69
2022-12-01T15:43:04.782Z,10.70
2022-12-01T15:45:45.306Z,10.67
2022-12-01T15:48:33.366Z,10.58
2022-12-01T15:51:12.671Z,10.57
2022-12-01T15:53:53.917Z,10.55
2022-12-01T15:56:33.090Z,10.52
2022-12-01T15:59:25.687Z,10.54
2022-12-01T16:01:54.024Z,10.54
2022-12-01T16:04:25.419Z,10.48
2022-12-01T16:06:58.302Z,10.50
2022-12-01T16:09:41.497Z,10.41
2022-12-01T16:12:09.328Z,10.37
2022-12-01T16:14:37.377Z,10.26
2022-12-01T16:17:09.218Z,10.24
2022-12-01T16:19:39.232Z,10.25
2022-12-01T16:22:21.895Z,10.20
2022-12-01T16:24:53.868Z,10.19
2022-12-01T16:27:26.155Z,10.17
2022-12-01T16:30:06.473Z,10.16
2022-12-01T16:32:40.502Z,10.10
2022-12-01T16:35:24.772Z,10.15
2022-12-01T16:37:53.171Z,10.14
2022-12-01T16:40:21.232Z,10.13
2022-12-01T16:42:52.326Z,10.07
2022-12-01T16:45:20.877Z,10.03
2022-12-01T16:47:49.590Z,10.04
2022-12-01T16:50:19.577Z,9.98
2022-12-01T16:52:47.613Z,9.94
2022-12-01T16:55:37.779Z,9.88
2022-12-01T16:58:06.018Z,9.85
2022-12-01T17:00:34.504Z,9.78
2022-12-01T17:03:03.047Z,9.74
2022-12-01T17:05:31.063Z,9.70
2022-12-01T17:07:59.078Z,9.55
2022-12-01T17:10:27.157Z,9.38
2022-12-01T17:12:55.069Z,9.25
2022-12-01T17:15:23.105Z,9.14
2022-12-01T17:17:51.582Z,9.01
2022-12-01T17:20:19.610Z,8.99
2022-12-01T17:22:47.518Z,8.92
2022-12-01T17:25:15.377Z,8.96
2022-12-01T17:27:44.159Z,8.98
2022-12-01T17:30:12.752Z,8.98
2022-12-01T17:32:40.558Z,8.96
2022-12-01T17:35:09.187Z,8.93
2022-12-01T17:37:40.072Z,8.89
2022-12-01T17:40:11.570Z,8.77
2022-12-01T17:42:39.750Z,8.79
2022-12-01T17:45:08.371Z,8.74
2022-12-01T17:47:36.328Z,8.73
2022-12-01T17:50:04.541Z,8.76
2022-12-01T17:52:32.829Z,8.72
2022-12-01T17:55:00.742Z,8.73
2022-12-01T17:57:28.626Z,8.70
2022-12-01T17:59:56.565Z,8.68
2022-12-01T18:02:24.514Z,8.74
2022-12-01T18:04:52.861Z,8.74
2022-12-01T18:07:21.118Z,8.74
2022-12-01T18:09:48.995Z,8.73
2022-12-01T18:12:16.953Z,8.74
2022-12-01T18:14:44.785Z,8.80
2022-12-01T18:17:12.747Z,8.72
2022-12-01T18:19:41.147Z,8.86
2022-12-01T18:22:09.136Z,8.91
2022-12-01T18:24:37.167Z,8.82
2022-12-01T18:27:05.118Z,8.82
2022-12-01T18:29:33.932Z,8.83
2022-12-01T18:32:02.113Z,8.89
2022-12-01T18:34:30.013Z,8.90
2022-12-01T18:36:58.042Z,8.89
2022-12-01T18:39:25.920Z,8.89
2022-12-01T18:41:54.280Z,8.93
2022-12-01T18:44:22.173Z,8.89
2022-12-01T18:46:50.315Z,8.91
2022-12-01T18:49:19.916Z,8.86
2022-12-01T18:51:47.754Z,8.84
2022-12-01T18:54:16.170Z,8.86
2022-12-01T18:56:44.378Z,8.88
2022-12-01T18:59:13.929Z,8.82
2022-12-01T19:01:44.071Z,8.79
2022-12-01T19:04:13.833Z,8.78
2022-12-01T19:06:43.026Z,8.79
2022-12-01T19:09:12.465Z,8.74
2022-12-01T19:11:41.483Z,8.70
2022-12-01T19:14:18.584Z,8.76
2022-12-01T19:16:47.251Z,8.73
2022-12-01T19:19:16.319Z,8.72
2022-12-01T19:21:45.969Z,8.73
2022-12-01T19:24:14.272Z,8.77
2022-12-01T19:26:42.593Z,8.75
2022-12-01T19:29:10.553Z,8.79
2022-12-01T19:31:38.686Z,8.79
2022-12-01T19:34:07.444Z,8.75
2022-12-01T19:36:35.430Z,8.70
2022-12-01T19:39:05.956Z,8.64
2022-12-01T19:41:38.740Z,8.65
2022-12-01T19:44:07.200Z,8.57
2022-12-01T19:46:35.221Z,8.59
2022-12-01T19:49:04.352Z,8.58
2022-12-01T19:51:37.429Z,8.56
2022-12-01T19:54:07.533Z,8.62
2022-12-01T19:56:35.504Z,8.58
2022-12-01T19:59:03.429Z,8.60
2022-12-01T20:01:31.455Z,8.49
2022-12-01T20:03:59.866Z,8.49
2022-12-01T20:06:30.184Z,8.47
2022-12-01T20:09:00.866Z,8.41
2022-12-01T20:11:30.101Z,8.37
2022-12-01T20:13:58.344Z,8.38
2022-12-01T20:16:28.522Z,8.36
2022-12-01T20:19:00.554Z,8.32
2022-12-01T20:21:33.181Z,8.26
2022-12-01T20:24:06.893Z,8.29
2022-12-01T20:26:38.299Z,8.29
2022-12-01T20:29:11.065Z,8.32
2022-12-01T20:31:42.086Z,8.36
2022-12-01T20:34:17.323Z,8.43
2022-12-01T20:36:45.739Z,8.47
2022-12-01T20:39:14.669Z,8.53
2022-12-01T20:41:43.312Z,8.55
2022-12-01T20:44:14.138Z,8.52
2022-12-01T20:46:46.554Z,8.54
2022-12-01T20:49:17.536Z,8.56
2022-12-01T20:51:46.549Z,8.55
2022-12-01T20:54:32.756Z,8.64
2022-12-01T20:57:01.243Z,8.58
2022-12-01T20:59:30.234Z,8.59
2022-12-01T21:01:58.534Z,8.59
2022-12-01T21:04:26.723Z,8.65
2022-12-01T21:06:58.737Z,8.67
2022-12-01T21:09:27.621Z,8.46
2022-12-01T21:12:17.639Z,8.78
2022-12-01T21:14:53.179Z,8.96
2022-12-01T21:17:35.874Z,8.91
2022-12-01T21:20:18.496Z,9.01
2022-12-01T21:22:46.711Z,8.93
2022-12-01T21:25:19.469Z,9.09
2022-12-01T21:27:47.974Z,9.03
2022-12-01T21:30:17.171Z,9.00
2022-12-01T21:32:47.410Z,8.98
2022-12-01T21:35:22.075Z,9.00
2022-12-01T21:37:51.050Z,9.04
2022-12-01T21:40:25.210Z,9.08
2022-12-01T21:42:53.420Z,9.08
2022-12-01T21:45:26.612Z,8.94
2022-12-01T21:47:59.913Z,8.95
2022-12-01T21:50:27.950Z,9.05
2022-12-01T21:52:55.869Z,9.06
2022-12-01T21:55:23.659Z,8.83
2022-12-01T21:57:53.666Z,9.03
2022-12-01T22:00:33.907Z,9.05
2022-12-01T22:03:13.839Z,8.98
2022-12-01T22:06:06.948Z,8.91
2022-12-01T22:08:37.579Z,8.94
2022-12-01T22:11:23.230Z,9.20
2022-12-01T22:14:09.596Z,9.16
2022-12-01T22:16:47.369Z,9.21
2022-12-01T22:19:15.221Z,9.12
2022-12-01T22:21:48.288Z,9.06
2022-12-01T22:24:43.964Z,9.10
2022-12-01T22:27:37.358Z,9.12
2022-12-01T22:30:08.295Z,9.30
2022-12-01T22:32:59.465Z,9.35
2022-12-01T22:35:28.668Z,9.30
2022-12-01T22:38:11.431Z,9.24
2022-12-01T22:40:48.240Z,9.24
2022-12-01T22:43:16.302Z,9.22
2022-12-01T22:45:47.676Z,9.19
2022-12-01T22:48:37.807Z,8.95
2022-12-01T22:51:41.399Z,8.92
2022-12-01T22:54:14.933Z,8.95
2022-12-01T22:57:12.087Z,8.85
2022-12-01T22:59:42.582Z,8.88
2022-12-01T23:02:21.503Z,9.06
2022-12-01T23:04:54.383Z,9.13
2022-12-01T23:07:36.988Z,9.38
2022-12-01T23:10:31.562Z,9.31
2022-12-01T23:13:01.824Z,9.13
2022-12-01T23:15:34.310Z,9.11
2022-12-01T23:18:21.614Z,8.98
2022-12-01T23:20:54.554Z,8.99
2022-12-01T23:23:28.557Z,9.22
2022-12-01T23:25:57.136Z,9.33
2022-12-01T23:28:25.483Z,9.40
2022-12-01T23:30:55.788Z,9.28
2022-12-01T23:33:28.910Z,9.16
2022-12-01T23:36:17.811Z,9.11
2022-12-01T23:38:52.318Z,9.19
2022-12-01T23:41:39.139Z,9.35
2022-12-01T23:44:27.743Z,9.38
2022-12-01T23:46:58.065Z,9.30
2022-12-01T23:49:29.939Z,9.25
2022-12-01T23:52:00.549Z,9.19
2022-12-01T23:54:32.552Z,9.20
2022-12-01T23:57:19.291Z,9.27
2022-12-01T23:59:48.701Z,9.36
